createdAt,value
2019-04-03T05:50:07.803Z,44.30
2019-04-03T05:53:09.803Z,44.50
2019-04-03T05:56:22.855Z,44.50
2019-04-03T05:59:20.093Z,44.80
2019-04-03T06:03:00.329Z,45.10
2019-04-03T06:06:05.444Z,45.20
2019-04-03T06:09:02.040Z,45.10
2019-04-03T06:15:37.772Z,44.80
2019-04-03T06:18:54.552Z,44.90
2019-04-03T06:25:05.084Z,44.00
2019-04-03T06:28:19.158Z,42.40
2019-04-03T06:31:33.415Z,42.60
2019-04-03T06:34:38.455Z,42.30
2019-04-03T06:37:39.190Z,42.50
2019-04-03T06:40:36.369Z,41.90
2019-04-03T06:43:32.113Z,41.60
2019-04-03T06:46:53.674Z,41.60
2019-04-03T06:49:42.061Z,41.30
2019-04-03T07:03:11.713Z,41.80
2019-04-03T07:06:07.149Z,41.60
2019-04-03T07:08:58.439Z,41.60
2019-04-03T07:11:57.129Z,42.00
2019-04-03T07:14:50.865Z,42.20
2019-04-03T07:17:44.049Z,41.80
2019-04-03T07:20:44.221Z,41.80
2019-04-03T07:23:39.103Z,41.60
2019-04-03T07:26:41.344Z,41.50
2019-04-03T07:29:35.195Z,41.20
2019-04-03T07:32:30.396Z,41.50
2019-04-03T07:35:40.837Z,41.10
2019-04-03T07:38:47.791Z,41.40
2019-04-03T07:41:45.181Z,41.60
2019-04-03T07:44:41.560Z,41.40
2019-04-03T07:47:38.001Z,41.30
2019-04-03T07:50:31.193Z,41.50
2019-04-03T07:53:26.476Z,42.10
2019-04-03T07:56:44.299Z,41.80
2019-04-03T07:59:41.260Z,41.80
2019-04-03T08:02:34.576Z,41.80
2019-04-03T08:05:30.380Z,41.70
2019-04-03T08:08:23.508Z,41.90
2019-04-03T08:11:16.846Z,41.80
2019-04-03T08:14:14.396Z,41.90
2019-04-03T08:17:11.122Z,42.20
2019-04-03T08:20:09.352Z,42.70
2019-04-03T08:26:36.469Z,42.80
2019-04-03T08:30:11.337Z,42.80
2019-04-03T08:33:19.078Z,42.60
2019-04-03T08:36:09.745Z,42.20
2019-04-03T08:39:15.161Z,42.30
2019-04-03T08:42:06.297Z,42.20
2019-04-03T08:44:59.866Z,42.00
2019-04-03T08:47:54.062Z,42.00
2019-04-03T08:50:52.165Z,41.60
2019-04-03T08:54:27.693Z,41.40
2019-04-03T08:57:20.469Z,41.40
2019-04-03T09:00:15.670Z,41.40
2019-04-03T09:03:12.260Z,41.30
2019-04-03T09:06:11.365Z,41.20
2019-04-03T09:09:06.541Z,40.90
2019-04-03T09:12:18.703Z,40.60
2019-04-03T09:15:00.319Z,40.60
2019-04-03T09:17:53.331Z,40.50
2019-04-03T09:21:03.743Z,41.10
2019-04-03T09:24:07.057Z,40.50
2019-04-03T09:26:52.150Z,40.20
2019-04-03T09:29:48.523Z,39.80
2019-04-03T09:32:53.980Z,40.00
2019-04-03T09:35:51.288Z,40.20
2019-04-03T09:38:46.661Z,39.70
2019-04-03T09:41:45.965Z,39.60
2019-04-03T09:44:40.788Z,40.10
2019-04-03T09:47:35.176Z,40.20
2019-04-03T09:50:34.302Z,40.50
2019-04-03T09:53:29.695Z,40.50
2019-04-03T09:56:36.723Z,40.60
2019-04-03T09:59:23.880Z,40.60
2019-04-03T10:02:24.347Z,40.60
2019-04-03T10:05:51.872Z,40.80
2019-04-03T10:09:24.597Z,40.60
2019-04-03T10:16:34.930Z,40.80
2019-04-03T10:19:53.182Z,40.60
2019-04-03T10:22:53.848Z,40.70
2019-04-03T10:25:52.534Z,40.70
2019-04-03T10:28:55.902Z,40.80
2019-04-03T10:31:49.645Z,40.70
2019-04-03T10:34:43.954Z,40.50
2019-04-03T10:37:51.993Z,40.50
2019-04-03T10:40:46.650Z,40.50
2019-04-03T10:43:43.124Z,40.50
2019-04-03T10:46:37.743Z,40.60
2019-04-03T10:49:35.945Z,40.70
2019-04-03T10:52:31.635Z,40.70
2019-04-03T10:55:31.986Z,40.90
2019-04-03T10:58:37.908Z,41.10
2019-04-03T11:01:32.207Z,41.00
2019-04-03T11:04:36.833Z,40.80
2019-04-03T11:07:29.905Z,40.90
2019-04-03T11:10:26.664Z,41.00
2019-04-03T11:13:34.272Z,40.50
2019-04-03T11:16:28.562Z,40.30
2019-04-03T11:19:24.294Z,40.30
2019-04-03T11:22:16.858Z,40.30
2019-04-03T11:34:22.689Z,40.30
2019-04-03T11:37:18.540Z,40.20
2019-04-03T11:40:18.640Z,40.10
2019-04-03T11:43:24.340Z,40.00
2019-04-03T11:46:35.835Z,39.90
2019-04-03T11:49:53.473Z,39.80
2019-04-03T11:53:12.793Z,39.80
2019-04-03T11:56:22.853Z,39.70
2019-04-03T11:59:56.806Z,39.70
2019-04-03T12:06:34.329Z,39.60
2019-04-03T12:10:18.890Z,39.50
2019-04-03T12:17:01.575Z,39.50
2019-04-03T12:20:03.196Z,39.50
2019-04-03T12:23:10.702Z,39.40
2019-04-03T12:33:53.143Z,39.40
2019-04-03T12:43:53.832Z,39.40
2019-04-03T12:47:23.037Z,39.40
2019-04-03T12:50:44.656Z,39.40
2019-04-03T12:53:36.001Z,39.50
2019-04-03T12:56:43.912Z,39.40
2019-04-03T12:59:46.604Z,39.30
2019-04-03T13:02:45.774Z,39.30
2019-04-03T13:05:48.514Z,39.30
2019-04-03T13:08:49.044Z,39.40
2019-04-03T13:11:49.755Z,39.50
2019-04-03T13:14:42.852Z,39.40
2019-04-03T13:17:52.452Z,39.40
2019-04-03T13:20:56.765Z,39.50
2019-04-03T13:23:53.559Z,39.40
2019-04-03T13:26:59.331Z,39.50
2019-04-03T13:30:50.232Z,39.50
2019-04-03T13:33:25.482Z,39.50
2019-04-03T13:36:24.451Z,39.50
2019-04-03T13:39:24.532Z,39.50
2019-04-03T13:42:18.937Z,39.50
2019-04-03T13:45:30.737Z,39.50
2019-04-03T13:48:25.492Z,39.60
2019-04-03T13:51:20.569Z,39.60
2019-04-03T13:54:17.229Z,39.60
2019-04-03T13:57:14.081Z,39.60
2019-04-03T14:00:18.090Z,39.60
2019-04-03T14:03:06.058Z,39.60
2019-04-03T14:06:00.301Z,39.60
2019-04-03T14:08:56.379Z,39.60
2019-04-03T14:11:52.517Z,39.60
2019-04-03T14:14:47.835Z,39.70
2019-04-03T14:17:53.482Z,39.70
2019-04-03T14:20:36.578Z,39.70
2019-04-03T14:23:30.925Z,39.70
2019-04-03T14:26:24.072Z,39.70
2019-04-03T14:29:20.584Z,39.70
2019-04-03T14:32:16.616Z,39.70
2019-04-03T14:35:40.486Z,39.70
2019-04-03T14:38:06.667Z,39.70
2019-04-03T14:41:01.025Z,39.80
2019-04-03T14:43:55.717Z,39.70
2019-04-03T14:46:51.053Z,39.70
2019-04-03T14:49:45.320Z,39.70
2019-04-03T14:52:39.857Z,39.80
2019-04-03T14:55:46.290Z,39.80
2019-04-03T14:58:30.598Z,39.80
2019-04-03T15:01:25.253Z,39.70
2019-04-03T15:04:20.188Z,39.90
2019-04-03T15:07:17.153Z,39.80
2019-04-03T15:10:11.699Z,39.90
2019-04-03T15:13:07.229Z,39.90
2019-04-03T15:16:01.232Z,39.90
2019-04-03T15:18:56.091Z,39.90
2019-04-03T15:21:50.456Z,39.80
2019-04-03T15:24:45.855Z,39.80
2019-04-03T15:27:40.677Z,39.80
2019-04-03T15:30:35.078Z,39.80
2019-04-03T15:33:29.764Z,39.80
2019-04-03T15:36:22.970Z,39.80
2019-04-03T15:39:19.379Z,39.70
2019-04-03T15:42:13.541Z,39.70
2019-04-03T15:45:07.643Z,39.80
2019-04-03T15:48:01.511Z,39.80
2019-04-03T15:50:57.830Z,39.80
2019-04-03T15:53:51.716Z,39.80
2019-04-03T15:56:46.014Z,39.80
2019-04-03T15:59:41.004Z,39.80
2019-04-03T16:02:36.382Z,39.80
2019-04-03T16:05:33.640Z,39.80
2019-04-03T16:08:26.511Z,39.70
2019-04-03T16:11:21.557Z,39.80
2019-04-03T16:14:19.246Z,39.70
2019-04-03T16:17:11.494Z,39.70
2019-04-03T16:20:06.547Z,39.80
2019-04-03T16:23:01.317Z,39.90
2019-04-03T16:25:55.549Z,40.00
2019-04-03T16:28:48.814Z,40.00
2019-04-03T16:31:42.279Z,39.90
2019-04-03T16:34:35.832Z,40.00
2019-04-03T16:37:29.147Z,40.00
2019-04-03T16:40:21.658Z,40.00
2019-04-03T16:43:15.586Z,40.00
2019-04-03T16:46:11.369Z,40.10
2019-04-03T16:49:03.201Z,40.10
2019-04-03T16:51:57.089Z,40.30
2019-04-03T16:54:55.487Z,40.50
2019-04-03T16:57:49.055Z,40.10
2019-04-03T17:00:43.545Z,39.30
2019-04-03T17:03:37.726Z,39.30
2019-04-03T17:06:30.801Z,39.10
2019-04-03T17:09:24.412Z,38.70
2019-04-03T17:12:18.738Z,38.60
2019-04-03T17:15:11.937Z,38.40
2019-04-03T17:18:06.090Z,38.10
2019-04-03T17:20:59.746Z,37.90
2019-04-03T17:23:53.553Z,38.10
2019-04-03T17:26:53.922Z,37.70
2019-04-03T17:29:48.115Z,37.80
2019-04-03T17:32:43.449Z,37.60
2019-04-03T17:35:38.165Z,37.40
2019-04-03T17:38:32.668Z,37.50
2019-04-03T17:41:30.298Z,37.20
2019-04-03T17:44:21.765Z,37.40
2019-04-03T17:47:19.194Z,37.10
2019-04-03T17:50:12.434Z,37.10
2019-04-03T17:53:07.087Z,37.10
2019-04-03T17:56:03.201Z,37.10
2019-04-03T17:58:58.342Z,37.20
2019-04-03T18:01:55.876Z,37.00
2019-04-03T18:04:51.189Z,37.00
2019-04-03T18:07:47.097Z,37.00
2019-04-03T18:10:42.637Z,37.20
2019-04-03T18:13:37.700Z,37.00
2019-04-03T18:16:32.510Z,37.00
2019-04-03T18:19:36.968Z,37.10
2019-04-03T18:22:20.780Z,37.10
2019-04-03T18:25:13.728Z,37.20
2019-04-03T18:28:07.264Z,37.10
2019-04-03T18:31:00.092Z,37.00
2019-04-03T18:33:54.004Z,36.70
2019-04-03T18:36:47.488Z,36.90
2019-04-03T18:39:40.549Z,36.80
2019-04-03T18:42:35.094Z,37.10
2019-04-03T18:45:32.672Z,36.90
2019-04-03T18:48:26.708Z,36.90
2019-04-03T18:51:20.324Z,36.90
2019-04-03T18:54:13.674Z,37.10
2019-04-03T18:57:07.003Z,37.00
2019-04-03T19:00:00.686Z,36.90
2019-04-03T19:02:54.853Z,36.80
2019-04-03T19:05:47.700Z,36.70
2019-04-03T19:08:41.211Z,36.80
2019-04-03T19:11:35.045Z,36.90
2019-04-03T19:14:31.503Z,37.00
2019-04-03T19:17:24.848Z,36.90
2019-04-03T19:20:17.313Z,36.80
2019-04-03T19:23:11.077Z,36.90
2019-04-03T19:26:04.954Z,36.70
2019-04-03T19:28:58.273Z,36.70
2019-04-03T19:31:51.426Z,36.80
2019-04-03T19:34:44.424Z,36.70
2019-04-03T19:37:37.543Z,36.50
2019-04-03T19:40:30.451Z,36.60
2019-04-03T19:43:23.303Z,36.50
2019-04-03T19:46:15.876Z,36.60
2019-04-03T19:49:09.472Z,36.60
2019-04-03T19:52:02.423Z,36.80
2019-04-03T19:54:56.077Z,36.70
2019-04-03T19:57:48.786Z,40.30
2019-04-03T20:00:41.591Z,43.10
2019-04-03T20:03:34.241Z,44.80
2019-04-03T20:06:26.919Z,43.20
2019-04-03T20:09:19.882Z,41.90
2019-04-03T20:12:13.447Z,41.20
2019-04-03T20:15:06.356Z,40.50
2019-04-03T20:17:59.817Z,39.80
2019-04-03T20:20:52.539Z,39.40
2019-04-03T20:23:45.196Z,39.20
2019-04-03T20:26:38.324Z,38.80
2019-04-03T20:29:31.860Z,38.50
2019-04-03T20:32:24.662Z,38.40
2019-04-03T20:35:18.737Z,38.20
2019-04-03T20:38:11.921Z,38.50
2019-04-03T20:41:05.022Z,42.00
2019-04-03T20:43:58.112Z,44.30
2019-04-03T20:46:52.015Z,45.20
2019-04-03T20:49:45.899Z,43.10
2019-04-03T20:52:39.065Z,41.90
2019-04-03T20:55:31.913Z,41.00
2019-04-03T20:58:25.146Z,40.30
2019-04-03T21:01:18.227Z,39.80
2019-04-03T21:04:12.979Z,39.30
2019-04-03T21:07:05.706Z,39.00
2019-04-03T21:10:00.525Z,38.70
2019-04-03T21:12:52.931Z,38.40
2019-04-03T21:15:46.061Z,40.90
2019-04-03T21:18:39.183Z,43.50
2019-04-03T21:21:32.048Z,45.60
2019-04-03T21:24:24.820Z,44.80
2019-04-03T21:27:17.375Z,42.90
2019-04-03T21:30:11.251Z,41.80
2019-04-03T21:33:05.543Z,40.90
2019-04-03T21:35:58.874Z,40.30
2019-04-03T21:38:51.278Z,39.70
2019-04-03T21:41:43.995Z,39.50
2019-04-03T21:44:36.497Z,39.10
2019-04-03T21:47:29.069Z,38.70
2019-04-03T21:50:21.429Z,42.00
2019-04-03T21:53:13.973Z,44.40
2019-04-03T21:56:06.404Z,46.40
2019-04-03T21:58:58.737Z,46.00
2019-04-03T22:01:51.476Z,44.00
2019-04-03T22:04:44.606Z,42.60
2019-04-03T22:07:37.390Z,42.20
2019-04-03T22:10:32.687Z,41.20
2019-04-03T22:13:24.660Z,40.30
2019-04-03T22:16:19.636Z,39.90
2019-04-03T22:19:11.994Z,39.50
2019-04-03T22:22:04.764Z,41.70
2019-04-03T22:24:57.853Z,44.20
2019-04-03T22:27:50.527Z,45.90
2019-04-03T22:30:44.711Z,47.10
2019-04-03T22:33:37.327Z,44.60
2019-04-03T22:36:33.296Z,43.60
2019-04-03T22:39:24.096Z,41.90
2019-04-03T22:42:18.265Z,41.20
2019-04-03T22:45:11.684Z,40.80
2019-04-03T22:48:04.048Z,40.20
2019-04-03T22:50:57.005Z,39.60
2019-04-03T22:53:49.691Z,42.50
2019-04-03T22:56:42.555Z,45.00
2019-04-03T22:59:35.145Z,46.30
2019-04-03T23:02:27.852Z,47.20
2019-04-03T23:05:20.498Z,44.60
2019-04-03T23:08:13.079Z,43.00
2019-04-03T23:11:05.819Z,42.20
2019-04-03T23:13:58.393Z,41.40
2019-04-03T23:16:51.156Z,40.80
2019-04-03T23:19:44.660Z,42.20
2019-04-03T23:22:37.794Z,44.70
2019-04-03T23:25:30.697Z,46.60
2019-04-03T23:28:23.453Z,47.40
2019-04-03T23:31:16.884Z,44.90
2019-04-03T23:34:09.704Z,43.50
2019-04-03T23:37:02.677Z,43.60
2019-04-03T23:39:55.174Z,43.20
2019-04-03T23:42:47.807Z,42.70
2019-04-03T23:45:43.570Z,42.50
2019-04-03T23:48:35.371Z,42.20
2019-04-03T23:51:28.117Z,42.10
2019-04-03T23:54:22.534Z,42.20
2019-04-03T23:57:15.893Z,42.00
